Time;durP1;ratioP1;P1;durP2;ratioP2;P2;SDS_P1;SDS_P2;PMS_P1;PMS_P2;Temp;Humidity;BMP_temperature;BMP_pressure;BME280_temperature;BME280_humidity;BME280_pressure;Samples;Min_cycle;Max_cycle;Signal;HPM_P1;HPM_P2
2022/11/24 00:01:53;;;;;;;;;;;6.60;99.90;;;;;;1992493;72;20327;-81
2022/11/24 00:04:20;;;;;;;;;;;6.60;99.90;;;;;;1992629;72;20159;-81
2022/11/24 00:06:47;;;;;;;;;;;6.60;99.90;;;;;;1992645;72;20301;-81
2022/11/24 00:09:13;;;;;;;;;;;6.60;99.90;;;;;;1992719;72;20098;-81
2022/11/24 00:11:40;;;;;;;;;;;6.60;99.90;;;;;;1992603;72;20370;-82
2022/11/24 00:14:07;;;;;;;;;;;6.60;99.90;;;;;;1992578;72;20130;-82
2022/11/24 00:16:34;;;;;;;;;;;6.60;99.90;;;;;;1992559;72;20341;-81
2022/11/24 00:19:01;;;;;;;;;;;6.60;99.90;;;;;;1992564;72;20322;-81
2022/11/24 00:21:29;;;;;;;;;;;6.70;99.90;;;;;;1992609;72;20158;-81
2022/11/24 00:23:55;;;;;;;;;;;6.80;99.90;;;;;;1992588;72;20117;-81
2022/11/24 00:26:23;;;;;;;;;;;6.80;99.90;;;;;;1992639;72;20164;-82
2022/11/24 00:28:50;;;;;;;;;;;6.90;99.90;;;;;;1992604;72;20109;-82
2022/11/24 00:31:21;;;;;;;;;;;7.00;99.90;;;;;;1992573;72;20160;-81
2022/11/24 00:33:51;;;;;;;;;;;7.00;99.90;;;;;;1992746;72;20194;-81
2022/11/24 00:36:17;;;;;;;;;;;7.20;99.90;;;;;;1992446;72;20138;-81
2022/11/24 00:38:44;;;;;;;;;;;7.20;99.90;;;;;;1992556;72;20114;-81
2022/11/24 00:41:11;;;;;;;;;;;7.20;99.90;;;;;;1992549;72;20103;-82
2022/11/24 00:43:37;;;;;;;;;;;7.20;99.90;;;;;;1992833;72;20098;-80
2022/11/24 00:46:04;;;;;;;;;;;7.20;99.90;;;;;;1992676;72;20313;-81
2022/11/24 00:48:31;;;;;;;;;;;7.20;99.90;;;;;;1992401;72;20176;-80
2022/11/24 00:51:01;;;;;;;;;;;7.20;99.90;;;;;;1992586;72;20171;-81
2022/11/24 00:53:28;;;;;;;;;;;7.30;99.90;;;;;;1992589;72;20102;-83
2022/11/24 00:55:54;;;;;;;;;;;7.30;99.90;;;;;;1992629;72;20166;-81
2022/11/24 00:58:22;;;;;;;;;;;7.30;99.90;;;;;;1992679;72;20109;-80
2022/11/24 01:00:48;;;;;;;;;;;7.40;99.90;;;;;;1992527;72;20187;-81
2022/11/24 01:03:15;;;;;;;;;;;7.30;99.90;;;;;;1992493;72;20114;-80
2022/11/24 01:05:42;;;;;;;;;;;7.30;99.90;;;;;;1992542;72;20345;-81
2022/11/24 01:08:08;;;;;;;;;;;7.20;99.90;;;;;;1992479;72;20144;-81
2022/11/24 01:10:35;;;;;;;;;;;7.20;99.90;;;;;;1992585;72;20317;-80
2022/11/24 01:13:02;;;;;;;;;;;7.20;99.90;;;;;;1992575;72;20113;-80
2022/11/24 01:15:31;;;;;;;;;;;7.30;99.90;;;;;;1992687;72;20217;-79
2022/11/24 01:17:58;;;;;;;;;;;7.20;99.90;;;;;;1992704;72;20185;-80
2022/11/24 01:20:25;;;;;;;;;;;7.10;99.90;;;;;;1992674;72;20109;-80
2022/11/24 01:22:51;;;;;;;;;;;7.20;99.90;;;;;;1992580;72;20132;-80
2022/11/24 01:25:18;;;;;;;;;;;7.10;99.90;;;;;;1992616;72;20354;-80
2022/11/24 01:27:45;;;;;;;;;;;7.10;99.90;;;;;;1992628;72;20129;-80
2022/11/24 01:30:11;;;;;;;;;;;7.00;99.90;;;;;;1992581;72;20351;-80
2022/11/24 01:32:38;;;;;;;;;;;6.90;99.90;;;;;;1993767;72;20114;-80
2022/11/24 01:35:05;;;;;;;;;;;6.80;99.90;;;;;;1993650;72;20362;-79
2022/11/24 01:37:32;;;;;;;;;;;6.80;99.90;;;;;;1992505;72;20201;-80
2022/11/24 01:39:58;;;;;;;;;;;6.80;99.90;;;;;;1992555;72;20121;-80
2022/11/24 01:42:25;;;;;;;;;;;6.90;99.90;;;;;;1992540;72;20121;-81
2022/11/24 01:44:53;;;;;;;;;;;6.90;99.90;;;;;;1992505;72;20132;-81
2022/11/24 01:47:33;;;;;;;;;;;6.90;99.90;;;;;;1988346;71;20122;-81
2022/11/24 01:50:01;;;;;;;;;;;6.80;99.90;;;;;;1992644;72;20339;-82
2022/11/24 01:52:33;;;;;;;;;;;6.80;99.90;;;;;;1992656;72;20138;-80
2022/11/24 01:55:00;;;;;;;;;;;6.80;99.90;;;;;;1992621;72;20293;-81
2022/11/24 01:57:29;;;;;;;;;;;6.80;99.90;;;;;;1992726;72;20110;-81
2022/11/24 01:59:57;;;;;;;;;;;6.80;99.90;;;;;;1992791;72;20109;-79
2022/11/24 02:02:24;;;;;;;;;;;6.80;99.90;;;;;;1992719;72;20149;-79
2022/11/24 02:04:51;;;;;;;;;;;6.90;99.90;;;;;;1992794;72;20113;-80
2022/11/24 02:07:17;;;;;;;;;;;6.90;99.90;;;;;;1992813;72;20148;-80
2022/11/24 02:09:49;;;;;;;;;;;6.90;99.90;;;;;;1992773;72;20222;-81
2022/11/24 02:12:19;;;;;;;;;;;6.90;99.90;;;;;;1992819;72;20102;-81
2022/11/24 02:14:45;;;;;;;;;;;6.90;99.90;;;;;;1992793;72;20098;-81
2022/11/24 02:17:12;;;;;;;;;;;6.90;99.90;;;;;;1992713;72;20160;-80
2022/11/24 02:19:51;;;;;;;;;;;6.90;99.90;;;;;;1992751;72;20094;-80
2022/11/24 02:22:28;;;;;;;;;;;7.00;99.90;;;;;;1993006;72;20165;-81
2022/11/24 02:24:59;;;;;;;;;;;7.00;99.90;;;;;;1993305;72;20152;-81
2022/11/24 02:27:26;;;;;;;;;;;7.00;99.90;;;;;;1993434;72;20113;-80
2022/11/24 02:29:53;;;;;;;;;;;6.90;99.90;;;;;;1993676;72;20324;-80
2022/11/24 02:32:19;;;;;;;;;;;6.90;99.90;;;;;;1993603;72;20139;-81
2022/11/24 02:34:46;;;;;;;;;;;7.00;99.90;;;;;;1993794;72;20383;-80
2022/11/24 02:37:13;;;;;;;;;;;7.00;99.90;;;;;;1993591;72;20159;-81
2022/11/24 02:39:39;;;;;;;;;;;7.00;99.90;;;;;;1993686;72;20321;-81
2022/11/24 02:42:07;;;;;;;;;;;7.00;99.90;;;;;;1993093;72;20164;-80
2022/11/24 02:44:36;;;;;;;;;;;7.00;99.90;;;;;;1992721;72;20156;-81
2022/11/24 02:47:06;;;;;;;;;;;7.00;99.90;;;;;;1990551;72;20139;-80
2022/11/24 02:49:33;;;;;;;;;;;6.90;99.90;;;;;;1992736;72;20139;-81
2022/11/24 02:52:00;;;;;;;;;;;6.80;99.90;;;;;;1992738;72;20142;-80
2022/11/24 02:54:26;;;;;;;;;;;6.70;99.90;;;;;;1992656;72;20109;-80
2022/11/24 02:56:53;;;;;;;;;;;6.70;99.90;;;;;;1992669;72;20126;-81
2022/11/24 02:59:20;;;;;;;;;;;6.60;99.90;;;;;;1992579;72;20353;-81
2022/11/24 03:01:47;;;;;;;;;;;6.50;99.90;;;;;;1992628;72;20109;-80
2022/11/24 03:04:13;;;;;;;;;;;6.40;99.90;;;;;;1992500;72;20351;-80
2022/11/24 03:06:42;;;;;;;;;;;6.30;99.90;;;;;;1992587;72;20143;-80
2022/11/24 03:09:09;;;;;;;;;;;6.30;99.90;;;;;;1992672;72;20140;-80
2022/11/24 03:11:36;;;;;;;;;;;6.30;99.90;;;;;;1992733;72;20209;-80
2022/11/24 03:14:03;;;;;;;;;;;6.10;99.90;;;;;;1992723;72;20321;-79
2022/11/24 03:16:30;;;;;;;;;;;6.00;99.90;;;;;;1992689;72;20121;-80
2022/11/24 03:18:56;;;;;;;;;;;6.00;99.90;;;;;;1992642;72;20113;-80
2022/11/24 03:21:23;;;;;;;;;;;5.90;99.90;;;;;;1992708;72;20120;-80
2022/11/24 03:23:51;;;;;;;;;;;5.80;99.90;;;;;;1992604;72;20113;-81
2022/11/24 03:26:18;;;;;;;;;;;5.80;99.90;;;;;;1992730;72;20105;-80
2022/11/24 03:28:45;;;;;;;;;;;5.80;99.90;;;;;;1992546;72;20160;-80
2022/11/24 03:31:11;;;;;;;;;;;5.80;99.90;;;;;;1992679;72;20110;-80
2022/11/24 03:33:38;;;;;;;;;;;5.80;99.90;;;;;;1992729;72;20160;-80
2022/11/24 03:36:05;;;;;;;;;;;5.60;99.90;;;;;;1992748;72;20157;-80
2022/11/24 03:38:32;;;;;;;;;;;5.70;99.90;;;;;;1992711;72;20176;-81
2022/11/24 03:40:58;;;;;;;;;;;5.80;99.90;;;;;;1992625;72;20222;-80
2022/11/24 03:43:25;;;;;;;;;;;5.80;99.90;;;;;;1992594;72;20155;-80
2022/11/24 03:45:52;;;;;;;;;;;5.80;99.90;;;;;;1992591;72;20113;-80
2022/11/24 03:48:23;;;;;;;;;;;5.80;99.90;;;;;;1992604;72;20337;-81
2022/11/24 03:50:54;;;;;;;;;;;5.80;99.90;;;;;;1991122;72;20130;-82
2022/11/24 03:53:21;;;;;;;;;;;5.70;99.90;;;;;;1991059;72;20094;-81
2022/11/24 03:55:48;;;;;;;;;;;5.70;99.90;;;;;;1992674;72;20195;-80
2022/11/24 03:58:15;;;;;;;;;;;5.80;99.90;;;;;;1992821;72;20152;-82
2022/11/24 04:00:41;;;;;;;;;;;5.80;99.90;;;;;;1992555;72;20140;-82
2022/11/24 04:03:08;;;;;;;;;;;5.80;99.90;;;;;;1992718;72;20343;-82
2022/11/24 04:05:35;;;;;;;;;;;5.90;99.90;;;;;;1992652;72;20187;-82
2022/11/24 04:08:04;;;;;;;;;;;5.90;99.90;;;;;;1992557;72;20144;-80
2022/11/24 04:10:35;;;;;;;;;;;5.80;99.90;;;;;;1992636;72;20171;-81
2022/11/24 04:13:03;;;;;;;;;;;6.00;99.90;;;;;;1992559;72;20186;-82
2022/11/24 04:15:30;;;;;;;;;;;6.00;99.90;;;;;;1990095;71;20133;-81
2022/11/24 04:17:57;;;;;;;;;;;6.00;99.90;;;;;;1992597;72;20152;-79
2022/11/24 04:20:23;;;;;;;;;;;6.00;99.90;;;;;;1992679;72;20143;-81
2022/11/24 04:22:50;;;;;;;;;;;6.00;99.90;;;;;;1992593;72;20102;-81
2022/11/24 04:25:17;;;;;;;;;;;5.80;99.90;;;;;;1992649;72;20136;-80
2022/11/24 04:27:44;;;;;;;;;;;5.70;99.90;;;;;;1992629;72;20152;-81
2022/11/24 04:30:11;;;;;;;;;;;5.80;99.90;;;;;;1992570;72;20106;-83
2022/11/24 04:32:38;;;;;;;;;;;5.50;99.90;;;;;;1992551;72;20117;-81
2022/11/24 04:35:05;;;;;;;;;;;5.50;99.90;;;;;;1992744;72;20169;-81
2022/11/24 04:37:31;;;;;;;;;;;5.60;99.90;;;;;;1992712;72;20337;-81
2022/11/24 04:39:58;;;;;;;;;;;5.40;99.90;;;;;;1992809;72;20191;-80
2022/11/24 04:42:25;;;;;;;;;;;5.40;99.90;;;;;;1992641;72;20141;-80
2022/11/24 04:44:54;;;;;;;;;;;5.50;99.90;;;;;;1992596;72;20167;-81
2022/11/24 04:47:21;;;;;;;;;;;5.40;99.90;;;;;;1992588;72;20359;-81
2022/11/24 04:49:48;;;;;;;;;;;5.30;99.90;;;;;;1992662;72;20188;-81
2022/11/24 04:52:16;;;;;;;;;;;5.50;99.90;;;;;;1992699;72;20156;-81
2022/11/24 04:54:42;;;;;;;;;;;5.50;99.90;;;;;;1992659;72;20109;-81
2022/11/24 04:57:11;;;;;;;;;;;5.60;99.90;;;;;;1992564;72;20121;-81
2022/11/24 04:59:37;;;;;;;;;;;5.50;99.90;;;;;;1992067;71;20121;-83
2022/11/24 05:02:04;;;;;;;;;;;5.40;99.90;;;;;;1992725;72;20152;-82
2022/11/24 05:04:31;;;;;;;;;;;5.40;99.90;;;;;;1992634;72;20105;-80
2022/11/24 05:06:57;;;;;;;;;;;5.50;99.90;;;;;;1992601;72;20155;-82
2022/11/24 05:09:24;;;;;;;;;;;5.50;99.90;;;;;;1992625;72;20237;-82
2022/11/24 05:11:51;;;;;;;;;;;5.40;99.90;;;;;;1992744;72;20117;-81
2022/11/24 05:14:17;;;;;;;;;;;5.50;99.90;;;;;;1992581;72;20109;-81
2022/11/24 05:16:44;;;;;;;;;;;5.30;99.90;;;;;;1992531;72;20246;-81
2022/11/24 05:19:12;;;;;;;;;;;5.20;99.90;;;;;;1992577;72;20109;-81
2022/11/24 05:21:38;;;;;;;;;;;5.20;99.90;;;;;;1992724;72;20109;-81
2022/11/24 05:24:05;;;;;;;;;;;5.20;99.90;;;;;;1992654;72;20138;-80
2022/11/24 05:26:34;;;;;;;;;;;5.20;99.90;;;;;;1992782;72;20113;-79
2022/11/24 05:29:01;;;;;;;;;;;5.20;99.90;;;;;;1992532;72;20147;-81
2022/11/24 05:31:27;;;;;;;;;;;5.10;99.90;;;;;;1992554;72;20106;-80
2022/11/24 05:33:54;;;;;;;;;;;5.00;99.90;;;;;;1993263;72;20264;-81
2022/11/24 05:39:07;;;;;;;;;;;5.00;99.90;;;;;;1993294;72;20141;-82
2022/11/24 05:41:34;;;;;;;;;;;5.00;99.90;;;;;;1992788;72;20090;-81
2022/11/24 05:44:00;;;;;;;;;;;4.90;99.90;;;;;;1992629;72;20133;-79
2022/11/24 05:46:27;;;;;;;;;;;4.90;99.90;;;;;;1965729;72;20098;-80
2022/11/24 05:48:54;;;;;;;;;;;4.80;99.90;;;;;;1992531;72;20175;-79
2022/11/24 05:51:20;;;;;;;;;;;4.80;99.90;;;;;;1992724;72;20101;-81
2022/11/24 05:53:47;;;;;;;;;;;4.90;99.90;;;;;;1992713;72;20235;-80
2022/11/24 05:56:14;;;;;;;;;;;4.90;99.90;;;;;;1992547;72;20147;-82
2022/11/24 05:58:41;;;;;;;;;;;4.90;99.90;;;;;;1992652;72;20113;-81
2022/11/24 06:01:08;;;;;;;;;;;4.90;99.90;;;;;;1992603;72;20098;-81
2022/11/24 06:03:35;;;;;;;;;;;4.80;99.90;;;;;;1992641;72;20149;-81
2022/11/24 06:06:02;;;;;;;;;;;4.80;99.90;;;;;;1992696;72;20098;-82
2022/11/24 06:08:28;;;;;;;;;;;4.70;99.90;;;;;;1992587;72;20187;-81
2022/11/24 06:11:15;;;;;;;;;;;4.80;99.90;;;;;;1992591;72;20161;-81
2022/11/24 06:13:25;;;;;;;;;;;4.80;99.90;;;;;;1988527;71;20189;-81
2022/11/24 06:15:52;;;;;;;;;;;4.80;99.90;;;;;;1992546;72;20098;-81
2022/11/24 06:18:18;;;;;;;;;;;5.00;99.90;;;;;;1992568;72;20109;-81
2022/11/24 06:20:45;;;;;;;;;;;4.90;99.90;;;;;;1992684;72;20145;-82
2022/11/24 06:23:12;;;;;;;;;;;5.00;99.90;;;;;;1992680;72;20097;-82
2022/11/24 06:25:38;;;;;;;;;;;4.90;99.90;;;;;;1992855;72;20102;-81
2022/11/24 06:28:05;;;;;;;;;;;5.00;99.90;;;;;;1992983;72;20152;-82
2022/11/24 06:30:32;;;;;;;;;;;5.00;99.90;;;;;;1992651;72;20159;-81
2022/11/24 06:32:59;;;;;;;;;;;5.10;99.90;;;;;;1992597;72;20117;-81
2022/11/24 06:35:25;;;;;;;;;;;5.10;99.90;;;;;;1993748;72;20130;-82
2022/11/24 06:37:52;;;;;;;;;;;5.10;99.90;;;;;;1992612;72;20134;-81
2022/11/24 06:40:19;;;;;;;;;;;5.10;99.90;;;;;;1992647;72;20117;-80
2022/11/24 06:42:47;;;;;;;;;;;5.20;99.90;;;;;;1992878;72;20198;-80
2022/11/24 06:45:14;;;;;;;;;;;5.30;99.90;;;;;;1991909;72;20105;-79
2022/11/24 06:47:40;;;;;;;;;;;5.30;99.90;;;;;;1992474;72;20318;-76
2022/11/24 06:50:08;;;;;;;;;;;5.30;99.90;;;;;;1992744;72;20109;-80
2022/11/24 06:52:35;;;;;;;;;;;5.40;99.90;;;;;;1965798;72;20175;-79
2022/11/24 06:55:01;;;;;;;;;;;5.30;99.90;;;;;;1992723;72;20109;-77
2022/11/24 06:57:30;;;;;;;;;;;5.40;99.90;;;;;;1992543;72;20140;-77
2022/11/24 06:59:57;;;;;;;;;;;5.40;99.90;;;;;;1992586;72;20120;-80
2022/11/24 07:02:24;;;;;;;;;;;5.40;99.90;;;;;;1992645;72;20185;-79
2022/11/24 07:04:53;;;;;;;;;;;5.60;99.90;;;;;;1992644;72;20102;-80
2022/11/24 07:07:20;;;;;;;;;;;5.70;99.90;;;;;;1992630;72;20102;-77
2022/11/24 07:09:46;;;;;;;;;;;5.70;99.90;;;;;;1992915;72;20163;-78
2022/11/24 07:12:13;;;;;;;;;;;5.70;99.90;;;;;;1991827;72;20094;-77
2022/11/24 07:14:40;;;;;;;;;;;5.70;99.90;;;;;;1993049;72;20094;-77
2022/11/24 07:17:06;;;;;;;;;;;5.70;99.90;;;;;;1992905;72;20179;-76
2022/11/24 07:19:33;;;;;;;;;;;5.90;99.90;;;;;;1992657;72;20094;-76
2022/11/24 07:22:00;;;;;;;;;;;6.00;99.90;;;;;;1992647;72;20298;-76
2022/11/24 07:24:26;;;;;;;;;;;6.00;99.90;;;;;;1992545;72;20106;-76
2022/11/24 07:26:53;;;;;;;;;;;6.10;99.90;;;;;;1992461;72;20357;-76
2022/11/24 07:29:20;;;;;;;;;;;6.00;99.90;;;;;;1992715;72;20151;-75
2022/11/24 07:31:47;;;;;;;;;;;6.10;99.90;;;;;;1993087;72;20309;-76
2022/11/24 07:34:13;;;;;;;;;;;6.10;99.90;;;;;;1993023;72;20094;-76
2022/11/24 07:36:41;;;;;;;;;;;6.10;99.90;;;;;;1992822;72;20102;-77
2022/11/24 07:39:09;;;;;;;;;;;6.10;99.90;;;;;;1993218;72;20114;-77
2022/11/24 07:41:37;;;;;;;;;;;6.10;99.90;;;;;;1993539;72;20150;-78
2022/11/24 07:44:04;;;;;;;;;;;6.10;99.90;;;;;;1992828;72;20105;-78
2022/11/24 07:46:32;;;;;;;;;;;6.20;99.90;;;;;;1993943;72;20106;-77
2022/11/24 07:48:59;;;;;;;;;;;6.10;99.90;;;;;;1992969;72;20121;-78
2022/11/24 07:51:26;;;;;;;;;;;6.20;99.90;;;;;;1992928;72;20160;-77
2022/11/24 07:53:52;;;;;;;;;;;6.20;99.90;;;;;;1992706;72;20179;-78
2022/11/24 07:56:19;;;;;;;;;;;6.30;99.90;;;;;;1992982;72;20114;-77
2022/11/24 07:58:46;;;;;;;;;;;6.20;99.90;;;;;;1993036;72;20251;-78
2022/11/24 08:01:13;;;;;;;;;;;6.20;99.90;;;;;;1993024;72;20357;-78
2022/11/24 08:03:40;;;;;;;;;;;6.20;99.90;;;;;;1993035;72;20317;-78
2022/11/24 08:06:07;;;;;;;;;;;6.40;99.90;;;;;;1992920;72;20215;-78
2022/11/24 08:08:34;;;;;;;;;;;6.50;99.90;;;;;;1992866;72;20109;-78
2022/11/24 08:11:04;;;;;;;;;;;6.50;99.90;;;;;;1992995;72;20138;-78
2022/11/24 08:13:31;;;;;;;;;;;6.60;99.90;;;;;;1992911;72;20117;-77
2022/11/24 08:15:58;;;;;;;;;;;6.60;99.90;;;;;;1993016;72;20143;-78
2022/11/24 08:18:26;;;;;;;;;;;6.60;99.90;;;;;;1993071;72;20155;-78
2022/11/24 08:20:53;;;;;;;;;;;6.70;99.90;;;;;;1992924;72;20349;-78
2022/11/24 08:23:20;;;;;;;;;;;6.70;99.90;;;;;;1992848;72;20101;-79
2022/11/24 08:25:47;;;;;;;;;;;6.80;99.90;;;;;;1992541;72;20113;-77
2022/11/24 08:28:13;;;;;;;;;;;6.80;99.90;;;;;;1992816;72;20126;-78
2022/11/24 08:30:40;;;;;;;;;;;6.90;99.90;;;;;;1992802;72;20109;-78
2022/11/24 08:33:07;;;;;;;;;;;6.90;99.90;;;;;;1992593;72;20113;-76
2022/11/24 08:35:37;;;;;;;;;;;6.90;99.90;;;;;;1992640;72;20094;-75
2022/11/24 08:38:04;;;;;;;;;;;6.90;99.90;;;;;;1992618;72;20105;-76
2022/11/24 08:40:30;;;;;;;;;;;6.90;99.90;;;;;;1992502;72;20098;-77
2022/11/24 08:42:58;;;;;;;;;;;7.10;99.90;;;;;;1992598;72;20098;-76
2022/11/24 08:45:24;;;;;;;;;;;7.20;99.90;;;;;;1992483;72;20156;-77
2022/11/24 08:47:54;;;;;;;;;;;7.20;99.90;;;;;;1992568;72;20109;-75
2022/11/24 08:50:21;;;;;;;;;;;7.20;99.90;;;;;;1992727;72;20129;-75
2022/11/24 08:52:48;;;;;;;;;;;7.40;99.90;;;;;;1992531;72;20110;-76
2022/11/24 08:55:15;;;;;;;;;;;7.30;99.90;;;;;;1992686;72;20130;-76
2022/11/24 08:57:41;;;;;;;;;;;7.20;99.90;;;;;;1992582;72;20223;-76
2022/11/24 09:00:09;;;;;;;;;;;7.20;99.90;;;;;;1992514;72;20105;-77
2022/11/24 09:02:35;;;;;;;;;;;7.30;99.90;;;;;;1992672;72;20125;-76
2022/11/24 09:05:02;;;;;;;;;;;7.40;99.90;;;;;;1992702;72;20176;-76
2022/11/24 09:07:29;;;;;;;;;;;7.40;99.90;;;;;;1992909;72;20107;-76
2022/11/24 09:09:55;;;;;;;;;;;7.30;99.90;;;;;;1992716;72;20165;-77
2022/11/24 09:12:22;;;;;;;;;;;7.50;99.90;;;;;;1993179;72;20098;-76
2022/11/24 09:14:49;;;;;;;;;;;7.50;99.90;;;;;;1992843;72;20102;-77
2022/11/24 09:17:15;;;;;;;;;;;7.60;99.90;;;;;;1992593;72;20393;-76
2022/11/24 09:19:42;;;;;;;;;;;7.60;99.90;;;;;;1992578;72;20098;-76
2022/11/24 09:22:09;;;;;;;;;;;7.70;99.90;;;;;;1992676;72;20106;-78
2022/11/24 09:24:36;;;;;;;;;;;7.70;99.90;;;;;;1992675;72;20246;-77
2022/11/24 09:27:02;;;;;;;;;;;7.90;99.90;;;;;;1992604;72;20113;-77
2022/11/24 09:29:29;;;;;;;;;;;8.00;99.90;;;;;;1992316;72;20125;-76
2022/11/24 09:31:56;;;;;;;;;;;8.00;99.90;;;;;;1992409;72;20161;-77
2022/11/24 09:34:22;;;;;;;;;;;8.10;99.90;;;;;;1992547;72;20102;-74
2022/11/24 09:36:50;;;;;;;;;;;7.90;99.90;;;;;;1992439;72;20109;-76
2022/11/24 09:39:17;;;;;;;;;;;8.00;99.90;;;;;;1992415;72;20205;-77
2022/11/24 09:41:45;;;;;;;;;;;7.90;99.90;;;;;;1992537;72;20175;-76
2022/11/24 09:44:23;;;;;;;;;;;8.00;99.90;;;;;;1992452;72;20163;-76
2022/11/24 09:47:09;;;;;;;;;;;8.00;99.90;;;;;;1992480;72;20159;-76
2022/11/24 09:49:40;;;;;;;;;;;8.10;99.90;;;;;;1992399;72;20158;-76
2022/11/24 09:52:10;;;;;;;;;;;8.30;99.90;;;;;;1992219;72;20113;-74
2022/11/24 09:54:37;;;;;;;;;;;8.40;99.90;;;;;;1992465;72;20110;-76
2022/11/24 09:57:04;;;;;;;;;;;8.40;99.90;;;;;;1992547;72;20329;-76
2022/11/24 09:59:31;;;;;;;;;;;8.40;99.90;;;;;;1992513;72;20124;-77
2022/11/24 10:01:57;;;;;;;;;;;8.30;99.90;;;;;;1992456;72;20110;-77
2022/11/24 10:04:28;;;;;;;;;;;8.30;99.90;;;;;;1992434;72;20321;-77
2022/11/24 10:06:56;;;;;;;;;;;8.30;99.90;;;;;;1992436;72;20139;-77
2022/11/24 10:09:25;;;;;;;;;;;8.30;99.90;;;;;;1992535;72;20105;-75
2022/11/24 10:12:05;;;;;;;;;;;8.40;99.90;;;;;;1992637;72;20191;-78
2022/11/24 10:14:33;;;;;;;;;;;8.40;99.90;;;;;;1991957;72;20140;-79
2022/11/24 10:17:14;;;;;;;;;;;8.60;99.90;;;;;;1991926;71;20148;-78
2022/11/24 10:19:45;;;;;;;;;;;8.70;99.90;;;;;;1991919;71;20365;-78
2022/11/24 10:22:13;;;;;;;;;;;8.90;99.90;;;;;;1992703;72;20098;-76
2022/11/24 10:27:31;;;;;;;;;;;9.00;99.90;;;;;;1909169;75;20155;-80
2022/11/24 10:29:58;;;;;;;;;;;9.00;99.90;;;;;;1917140;74;20151;-77
2022/11/24 10:32:25;;;;;;;;;;;9.20;99.90;;;;;;1917406;75;20187;-78
2022/11/24 10:34:52;;;;;;;;;;;9.40;99.90;;;;;;1917697;75;20114;-75
2022/11/24 10:37:29;;;;;;;;;;;9.40;99.90;;;;;;1917237;75;20329;-78
2022/11/24 10:40:03;;;;;;;;;;;9.40;99.90;;;;;;1917233;75;20110;-77
2022/11/24 10:42:30;;;;;;;;;;;9.30;99.90;;;;;;1915133;74;20122;-79
2022/11/24 10:45:01;;;;;;;;;;;9.20;99.90;;;;;;1917186;75;20141;-75
2022/11/24 10:47:27;;;;;;;;;;;9.30;99.90;;;;;;1917127;75;20126;-76
2022/11/24 10:49:56;;;;;;;;;;;9.50;99.90;;;;;;1917316;75;20160;-75
2022/11/24 10:52:22;;;;;;;;;;;9.60;99.90;;;;;;1916941;75;20138;-75
2022/11/24 10:54:55;;;;;;;;;;;9.70;99.90;;;;;;1916970;75;20099;-75
2022/11/24 10:57:32;;;;;;;;;;;9.70;99.90;;;;;;1917225;75;20144;-76
2022/11/24 11:00:05;;;;;;;;;;;10.00;99.90;;;;;;1917065;75;20135;-75
2022/11/24 11:02:38;;;;;;;;;;;10.00;99.90;;;;;;1916629;75;20156;-76
2022/11/24 11:05:23;;;;;;;;;;;10.00;99.90;;;;;;1917064;75;20110;-75
2022/11/24 11:07:50;;;;;;;;;;;10.00;99.90;;;;;;1917083;75;20099;-75
2022/11/24 11:10:18;;;;;;;;;;;9.90;99.90;;;;;;1917038;75;20107;-75
2022/11/24 11:12:44;;;;;;;;;;;10.10;99.90;;;;;;1917418;75;20329;-75
2022/11/24 11:15:16;;;;;;;;;;;10.10;99.90;;;;;;1917783;75;20114;-77
2022/11/24 11:17:42;;;;;;;;;;;10.10;99.90;;;;;;1910650;75;20192;-74
2022/11/24 11:20:11;;;;;;;;;;;9.90;99.90;;;;;;1920490;75;20138;-75
2022/11/24 11:22:37;;;;;;;;;;;9.90;99.90;;;;;;1912595;75;20140;-76
2022/11/24 11:25:11;;;;;;;;;;;9.90;99.90;;;;;;1917572;75;20352;-76
2022/11/24 11:27:39;;;;;;;;;;;9.70;99.90;;;;;;1917761;75;20114;-75
2022/11/24 11:30:13;;;;;;;;;;;9.90;99.90;;;;;;1917777;75;20111;-76
2022/11/24 11:32:41;;;;;;;;;;;10.40;99.90;;;;;;1879679;75;20161;-76
2022/11/24 11:35:09;;;;;;;;;;;11.10;99.90;;;;;;1915851;75;20118;-75
2022/11/24 11:37:36;;;;;;;;;;;11.80;99.90;;;;;;1917376;75;20111;-76
2022/11/24 11:40:03;;;;;;;;;;;12.40;99.90;;;;;;1917382;75;20187;-75
2022/11/24 11:42:32;;;;;;;;;;;12.80;99.90;;;;;;1892422;75;20110;-76
2022/11/24 11:45:04;;;;;;;;;;;12.70;99.90;;;;;;1917589;74;20114;-75
2022/11/24 11:47:32;;;;;;;;;;;13.00;99.90;;;;;;1917614;75;20128;-75
2022/11/24 11:49:59;;;;;;;;;;;13.10;99.90;;;;;;1917088;75;20168;-75
2022/11/24 11:52:27;;;;;;;;;;;12.90;99.90;;;;;;1917132;75;20110;-75
2022/11/24 11:55:12;;;;;;;;;;;12.90;99.90;;;;;;1916667;74;20106;-75
2022/11/24 11:57:43;;;;;;;;;;;12.50;99.90;;;;;;1917124;75;20095;-74
2022/11/24 12:00:20;;;;;;;;;;;12.00;99.90;;;;;;1916653;74;20149;-75
2022/11/24 12:03:05;;;;;;;;;;;11.70;99.90;;;;;;1917166;75;20245;-73
2022/11/24 12:05:34;;;;;;;;;;;11.30;99.90;;;;;;1917156;75;20095;-74
2022/11/24 12:08:02;;;;;;;;;;;11.30;99.90;;;;;;1917147;74;20114;-75
2022/11/24 12:10:30;;;;;;;;;;;11.30;99.90;;;;;;1911516;74;20111;-74
2022/11/24 12:13:01;;;;;;;;;;;10.70;99.90;;;;;;1916344;75;20218;-74
2022/11/24 12:15:32;;;;;;;;;;;10.50;99.90;;;;;;1917064;75;20326;-77
2022/11/24 12:18:01;;;;;;;;;;;10.20;99.90;;;;;;1917031;75;20118;-75
2022/11/24 12:20:46;;;;;;;;;;;10.20;99.90;;;;;;1916258;74;20196;-75
2022/11/24 12:23:29;;;;;;;;;;;10.20;99.90;;;;;;1917217;75;20149;-75
2022/11/24 12:26:07;;;;;;;;;;;10.20;99.90;;;;;;1917199;75;20204;-76
2022/11/24 12:28:44;;;;;;;;;;;10.30;99.90;;;;;;1916828;75;20408;-76
2022/11/24 12:31:15;;;;;;;;;;;10.30;99.90;;;;;;1915047;75;20114;-74
2022/11/24 12:33:44;;;;;;;;;;;10.40;99.90;;;;;;1917063;74;20110;-75
2022/11/24 12:36:15;;;;;;;;;;;10.90;99.90;;;;;;1917056;75;20118;-76
2022/11/24 12:38:43;;;;;;;;;;;11.50;99.90;;;;;;1917083;74;20160;-77
2022/11/24 12:41:30;;;;;;;;;;;11.80;99.90;;;;;;1917162;74;20118;-76
2022/11/24 12:43:58;;;;;;;;;;;12.00;99.90;;;;;;1917302;74;20107;-77
2022/11/24 12:46:43;;;;;;;;;;;11.90;99.90;;;;;;1917162;75;20209;-75
2022/11/24 12:49:12;;;;;;;;;;;12.00;99.90;;;;;;1917125;75;20347;-75
2022/11/24 12:51:39;;;;;;;;;;;11.60;99.90;;;;;;1917277;74;20109;-76
2022/11/24 12:54:08;;;;;;;;;;;11.20;99.90;;;;;;1917227;75;20095;-75
2022/11/24 12:56:39;;;;;;;;;;;11.00;99.90;;;;;;1917054;75;20114;-76
2022/11/24 12:59:10;;;;;;;;;;;11.90;99.90;;;;;;1917141;75;20123;-77
2022/11/24 13:01:39;;;;;;;;;;;12.40;99.90;;;;;;1916841;75;20149;-76
2022/11/24 13:04:24;;;;;;;;;;;12.40;99.90;;;;;;1917218;75;20095;-77
2022/11/24 13:06:51;;;;;;;;;;;12.30;99.90;;;;;;1917119;75;20334;-76
2022/11/24 13:09:20;;;;;;;;;;;12.10;99.90;;;;;;1917118;75;20209;-76
2022/11/24 13:11:47;;;;;;;;;;;12.00;99.90;;;;;;1917100;75;20143;-75
2022/11/24 13:14:15;;;;;;;;;;;11.70;99.90;;;;;;1917338;75;20181;-74
2022/11/24 13:16:55;;;;;;;;;;;11.80;99.90;;;;;;1917467;75;20310;-74
2022/11/24 13:19:23;;;;;;;;;;;12.00;99.90;;;;;;1917109;75;20103;-76
2022/11/24 13:21:51;;;;;;;;;;;12.30;99.90;;;;;;1917064;75;20140;-76
2022/11/24 13:24:20;;;;;;;;;;;12.80;99.90;;;;;;1916389;74;20106;-73
2022/11/24 13:26:47;;;;;;;;;;;13.20;99.90;;;;;;1917158;75;20136;-74
2022/11/24 13:29:32;;;;;;;;;;;13.70;99.90;;;;;;1917094;75;20282;-73
2022/11/24 13:32:03;;;;;;;;;;;14.10;99.90;;;;;;1917184;75;20103;-73
2022/11/24 13:34:38;;;;;;;;;;;14.30;99.90;;;;;;1917172;75;20118;-72
2022/11/24 13:37:17;;;;;;;;;;;13.80;99.90;;;;;;1900125;74;20145;-74
2022/11/24 13:39:48;;;;;;;;;;;13.60;99.90;;;;;;1917112;75;20150;-75
2022/11/24 13:42:15;;;;;;;;;;;13.10;99.90;;;;;;1917162;75;20099;-73
2022/11/24 13:45:01;;;;;;;;;;;12.40;99.90;;;;;;1917119;75;20253;-73
2022/11/24 13:47:32;;;;;;;;;;;12.30;99.90;;;;;;1917109;75;20099;-75
2022/11/24 13:49:59;;;;;;;;;;;11.90;99.90;;;;;;1917065;75;20120;-75
2022/11/24 13:52:39;;;;;;;;;;;11.60;99.90;;;;;;1917126;75;20118;-75
2022/11/24 13:55:14;;;;;;;;;;;11.50;99.90;;;;;;1917212;75;20110;-75
2022/11/24 13:57:45;;;;;;;;;;;11.30;99.90;;;;;;1917103;75;20310;-76
2022/11/24 14:00:20;;;;;;;;;;;11.30;99.90;;;;;;1915380;75;20114;-76
2022/11/24 14:02:46;;;;;;;;;;;11.40;99.90;;;;;;1917121;75;20176;-77
2022/11/24 14:05:15;;;;;;;;;;;11.50;99.90;;;;;;1917181;75;20122;-78
2022/11/24 14:07:42;;;;;;;;;;;12.00;99.90;;;;;;1915618;75;20201;-74
2022/11/24 14:10:16;;;;;;;;;;;12.40;99.90;;;;;;1917578;75;20152;-76
2022/11/24 14:12:43;;;;;;;;;;;12.30;99.90;;;;;;1915939;75;20118;-76
2022/11/24 14:15:21;;;;;;;;;;;12.40;99.90;;;;;;1917449;75;20111;-75
2022/11/24 14:17:48;;;;;;;;;;;12.80;99.90;;;;;;1915842;74;20139;-76
2022/11/24 14:20:24;;;;;;;;;;;13.40;99.90;;;;;;1917188;75;20119;-76
2022/11/24 14:22:51;;;;;;;;;;;13.50;99.90;;;;;;1917160;75;20099;-76
2022/11/24 14:25:22;;;;;;;;;;;13.50;99.90;;;;;;1917279;75;20310;-76
2022/11/24 14:27:49;;;;;;;;;;;13.70;99.90;;;;;;1917286;75;20214;-76
2022/11/24 14:30:20;;;;;;;;;;;13.50;99.90;;;;;;1917166;74;20342;-78
2022/11/24 14:32:59;;;;;;;;;;;13.00;99.90;;;;;;1917233;75;20167;-77
2022/11/24 14:35:27;;;;;;;;;;;13.00;99.90;;;;;;1917144;75;20333;-77
2022/11/24 14:37:54;;;;;;;;;;;12.70;99.90;;;;;;1917192;75;20420;-78
2022/11/24 14:40:39;;;;;;;;;;;12.50;99.90;;;;;;1917123;75;20110;-77